Terminal Aerodrome Forecast
Issued by NWS

Home | Current Version | Previous Version | Text Only | Print | Product List | Glossary On
Versions: 1 2 3 4 5 6 7 8 9 10 11 12 13 14 15 16 17
000
FTUS41 KGYX 250835 AAA
TAFHIE
TAF AMD
KHIE 250835Z 2509/2606 08005KT P6SM OVC200
     FM251200 12008G16KT P6SM BKN050 OVC100
     FM251500 12012G20KT 1SM -SN OVC015
     FM251900 13013G21KT 1SM -RASN OVC015
     FM252100 14012G20KT 4SM -RASN OVC015
     FM260000 15010KT P6SM BKN015=

USA.gov is the U.S. government's official web portal to all federal, state and local government web resources and services.